Time;durP1;ratioP1;P1;durP2;ratioP2;P2;SDS_P1;SDS_P2;PMS_P1;PMS_P2;Temp;Humidity;BMP_temperature;BMP_pressure;BME280_temperature;BME280_humidity;BME280_pressure;Samples;Min_cycle;Max_cycle;Signal;HPM_P1;HPM_P2
2022/06/07 00:00:22;;;;;;;;;;;;;;;16.22;64.81;96920.72;30001;982;1877;-64
2022/06/07 00:00:53;;;;;;;;;;;;;;;16.21;64.49;96913.66;30001;982;1877;-62
2022/06/07 00:01:24;;;;;;;;;;;;;;;16.23;64.71;96922.34;30001;982;1877;-63
2022/06/07 00:01:55;;;;;;;;;;;;;;;16.22;64.04;96915.25;30001;982;1877;-64
2022/06/07 00:02:29;;;;;;;;;;;;;;;16.20;64.49;96928.47;30001;982;1877;-65
2022/06/07 00:03:00;;;;;;;;;;;;;;;16.21;64.35;96919.94;30001;982;1864;-64
2022/06/07 00:03:30;;;;;;;;;;;;;;;16.21;64.30;96919.13;30001;982;1868;-65
2022/06/07 00:04:02;;;;;;;;;;;;;;;16.21;64.60;96919.13;30001;983;1876;-62
2022/06/07 00:04:34;;;;;;;;;;;;;;;16.21;64.32;96919.13;30001;983;1863;-65
2022/06/07 00:05:05;;;;;;;;;;;;;;;16.21;64.31;96916.38;30001;983;1868;-64
2022/06/07 00:05:37;;;;;;;;;;;;;;;16.22;65.07;96915.25;30001;983;1877;-62
2022/06/07 00:06:09;;;;;;;;;;;;;;;16.22;64.63;96920.72;30001;983;1877;-63
2022/06/07 00:06:40;;;;;;;;;;;;;;;16.23;64.49;96920.41;30001;983;1877;-65
2022/06/07 00:07:13;;;;;;;;;;;;;;;16.23;64.11;96911.41;30001;983;1877;-65
2022/06/07 00:07:44;;;;;;;;;;;;;;;16.21;64.23;96911.72;30001;974;1896;-64
2022/06/07 00:08:18;;;;;;;;;;;;;;;16.22;63.91;96920.72;30001;982;1877;-64
2022/06/07 00:08:51;;;;;;;;;;;;;;;16.21;63.92;96914.47;30001;982;1864;-64
2022/06/07 00:09:22;;;;;;;;;;;;;;;16.23;64.11;96912.19;30001;982;1868;-61
2022/06/07 00:09:53;;;;;;;;;;;;;;;16.26;63.95;96913.47;30001;982;1877;-64
2022/06/07 00:10:26;;;;;;;;;;;;;;;16.26;63.17;96910.75;30001;983;1876;-64
2022/06/07 00:10:58;;;;;;;;;;;;;;;16.26;63.24;96910.75;30001;983;1876;-62
2022/06/07 00:11:28;;;;;;;;;;;;;;;16.25;63.46;96909.13;30001;983;1863;-62
2022/06/07 00:12:00;;;;;;;;;;;;;;;16.24;63.42;96913.81;30001;983;1868;-64
2022/06/07 00:12:31;;;;;;;;;;;;;;;16.23;63.43;96912.19;30001;983;1876;-64
2022/06/07 00:13:01;;;;;;;;;;;;;;;16.24;63.72;96913.00;30001;983;1876;-64
2022/06/07 00:13:32;;;;;;;;;;;;;;;16.22;63.75;96913.31;30001;983;1876;-62
2022/06/07 00:14:04;;;;;;;;;;;;;;;16.23;63.89;96911.41;30001;983;1877;-64
2022/06/07 00:14:35;;;;;;;;;;;;;;;16.23;63.80;96912.19;30001;983;1877;-64
2022/06/07 00:15:07;;;;;;;;;;;;;;;16.27;64.25;96912.34;30001;983;1864;-61
2022/06/07 00:15:41;;;;;;;;;;;;;;;16.28;63.35;96908.47;30001;982;1868;-64
2022/06/07 00:16:12;;;;;;;;;;;;;;;16.30;63.28;96911.66;30001;982;1864;-62
2022/06/07 00:16:43;;;;;;;;;;;;;;;16.31;62.94;96902.31;30001;982;1868;-64
2022/06/07 00:17:14;;;;;;;;;;;;;;;16.30;63.19;96911.66;30001;982;1877;-64
2022/06/07 00:17:45;;;;;;;;;;;;;;;16.29;62.88;96907.31;30001;982;1778;-63
2022/06/07 00:18:16;;;;;;;;;;;;;;;16.27;63.15;96912.34;30001;983;1876;-64
2022/06/07 00:18:47;;;;;;;;;;;;;;;16.26;63.10;96917.00;30001;983;1863;-62
2022/06/07 00:19:18;;;;;;;;;;;;;;;16.26;63.58;96916.22;30001;983;1868;-63
2022/06/07 00:19:49;;;;;;;;;;;;;;;16.25;63.47;96914.59;30001;983;1876;-64
2022/06/07 00:20:20;;;;;;;;;;;;;;;16.25;63.56;96914.59;30001;983;1877;-64
2022/06/07 00:20:50;;;;;;;;;;;;;;;16.25;63.32;96914.59;30001;983;1877;-65
2022/06/07 00:21:21;;;;;;;;;;;;;;;16.24;63.52;96918.47;30001;983;1877;-61
2022/06/07 00:21:52;;;;;;;;;;;;;;;16.25;63.40;96914.59;30001;983;1877;-63
2022/06/07 00:22:23;;;;;;;;;;;;;;;16.25;63.43;96920.88;30001;983;1877;-64
2022/06/07 00:22:53;;;;;;;;;;;;;;;16.24;63.49;96915.72;30001;982;1877;-63
2022/06/07 00:23:24;;;;;;;;;;;;;;;16.24;63.82;96916.53;30001;982;1877;-64
2022/06/07 00:23:56;;;;;;;;;;;;;;;16.24;63.83;96913.00;30001;982;1864;-64
2022/06/07 00:24:26;;;;;;;;;;;;;;;16.24;63.89;96923.94;30001;982;1868;-63
2022/06/07 00:24:57;;;;;;;;;;;;;;;16.23;63.43;96917.66;30001;982;1877;-61
2022/06/07 00:25:29;;;;;;;;;;;;;;;16.25;63.92;96917.34;30001;983;1876;-50
2022/06/07 00:26:00;;;;;;;;;;;;;;;16.25;63.43;96914.59;30001;983;1876;-63
2022/06/07 00:26:32;;;;;;;;;;;;;;;16.23;63.83;96917.66;30001;983;1876;-63
2022/06/07 00:27:03;;;;;;;;;;;;;;;16.24;63.37;96918.47;30001;983;1876;-64
2022/06/07 00:27:34;;;;;;;;;;;;;;;16.24;63.83;96919.28;30001;983;1863;-62
2022/06/07 00:28:06;;;;;;;;;;;;;;;16.28;63.10;96922.16;30001;983;1868;-62
2022/06/07 00:28:38;;;;;;;;;;;;;;;16.31;63.13;96911.34;30001;985;1877;-60
2022/06/07 00:29:09;;;;;;;;;;;;;;;16.35;62.94;96915.03;30001;983;1863;-50
2022/06/07 00:29:41;;;;;;;;;;;;;;;16.36;62.85;96910.34;30001;982;1868;-64
2022/06/07 00:30:12;;;;;;;;;;;;;;;16.34;62.81;96912.59;30001;982;1877;-65
2022/06/07 00:30:44;;;;;;;;;;;;;;;16.32;62.92;96910.19;30001;982;1877;-63
2022/06/07 00:31:15;;;;;;;;;;;;;;;16.31;62.86;96910.53;30001;982;1877;-62
2022/06/07 00:31:45;;;;;;;;;;;;;;;16.30;63.33;96917.13;30001;982;1877;-63
2022/06/07 00:32:18;;;;;;;;;;;;;;;16.30;63.12;96917.13;30001;982;1877;-64
2022/06/07 00:32:49;;;;;;;;;;;;;;;16.29;63.01;96915.53;30001;982;1877;-63
2022/06/07 00:33:21;;;;;;;;;;;;;;;16.27;63.10;96917.81;30001;986;1872;-64
2022/06/07 00:33:52;;;;;;;;;;;;;;;16.26;63.38;96913.47;30001;986;1864;-61
2022/06/07 00:34:23;;;;;;;;;;;;;;;16.26;63.21;96914.28;30001;983;1872;-62
2022/06/07 00:34:54;;;;;;;;;;;;;;;16.25;63.41;96914.59;30001;983;1881;-62
2022/06/07 00:35:26;;;;;;;;;;;;;;;16.24;63.47;96913.00;30001;983;1881;-64
2022/06/07 00:35:57;;;;;;;;;;;;;;;16.23;63.73;96917.66;30001;983;1868;-63
2022/06/07 00:36:28;;;;;;;;;;;;;;;16.22;63.73;96912.53;30001;983;1872;-61
2022/06/07 00:37:00;;;;;;;;;;;;;;;16.20;64.47;96917.53;30001;983;1882;-64
2022/06/07 00:37:31;;;;;;;;;;;;;;;16.19;63.94;96926.88;30002;787;1014;-63
2022/06/07 00:38:01;;;;;;;;;;;;;;;16.17;64.22;96920.91;30001;982;1881;-62
2022/06/07 00:38:35;;;;;;;;;;;;;;;16.18;64.01;96919.78;30001;982;1787;-63
2022/06/07 00:39:07;;;;;;;;;;;;;;;16.17;64.23;96918.97;30001;982;1881;-63
2022/06/07 00:39:38;;;;;;;;;;;;;;;16.16;64.13;96911.91;30001;982;1882;-64
2022/06/07 00:40:09;;;;;;;;;;;;;;;16.15;64.45;96920.44;30001;982;1881;-65
2022/06/07 00:40:42;;;;;;;;;;;;;;;16.15;64.47;96918.50;30001;983;1881;-63
2022/06/07 00:41:13;;;;;;;;;;;;;;;16.14;64.70;96924.31;30001;983;1868;-63
2022/06/07 00:41:44;;;;;;;;;;;;;;;16.12;64.48;96913.69;30001;958;1897;-62
2022/06/07 00:42:15;;;;;;;;;;;;;;;16.12;64.67;96915.63;30001;985;1877;-50
2022/06/07 00:42:46;;;;;;;;;;;;;;;16.11;64.70;96919.47;30001;983;1881;-65
2022/06/07 00:43:21;;;;;;;;;;;;;;;16.09;65.00;96919.81;30001;983;1881;-63
2022/06/07 00:44:11;;;;;;;;;;;;;;;16.09;64.99;96914.34;30001;983;1868;-63
2022/06/07 00:44:46;;;;;;;;;;;;;;;16.07;65.14;96919.31;30001;982;1864;-63
2022/06/07 00:45:19;;;;;;;;;;;;;;;16.06;64.83;96918.53;30001;965;1898;-63
2022/06/07 00:45:50;;;;;;;;;;;;;;;16.07;64.97;96909.19;30001;982;1881;-62
2022/06/07 00:46:21;;;;;;;;;;;;;;;16.10;64.26;96918.69;30001;982;1881;-64
2022/06/07 00:47:04;;;;;;;;;;;;;;;16.13;64.18;96911.75;30001;982;1882;-60
2022/06/07 00:47:35;;;;;;;;;;;;;;;16.16;64.03;96917.38;30001;982;1881;-62
2022/06/07 00:48:07;;;;;;;;;;;;;;;16.15;63.91;96913.03;30001;983;1867;-64
2022/06/07 00:48:38;;;;;;;;;;;;;;;16.15;63.83;96914.97;30001;983;1872;-63
2022/06/07 00:49:10;;;;;;;;;;;;;;;16.13;64.09;96920.75;30001;983;1868;-62
2022/06/07 00:49:43;;;;;;;;;;;;;;;16.12;64.09;96910.12;30001;983;1872;-51
2022/06/07 00:50:22;;;;;;;;;;;;;;;16.09;64.08;96917.88;30001;983;1881;-64
2022/06/07 00:50:55;;;;;;;;;;;;;;;16.08;64.34;96916.25;30001;983;1881;-64
2022/06/07 00:51:26;;;;;;;;;;;;;;;16.07;64.43;96917.41;30001;983;1868;-64
2022/06/07 00:51:57;;;;;;;;;;;;;;;16.07;64.50;96909.19;30001;983;1873;-65
2022/06/07 00:52:29;;;;;;;;;;;;;;;16.07;64.70;96914.66;30001;982;1881;-64
2022/06/07 00:53:00;;;;;;;;;;;;;;;16.09;64.41;96912.41;30001;982;1881;-64
2022/06/07 00:53:32;;;;;;;;;;;;;;;16.08;64.53;96910.78;30001;982;1881;-62
2022/06/07 00:54:03;;;;;;;;;;;;;;;16.08;64.12;96915.47;30001;982;1881;-63
2022/06/07 00:54:35;;;;;;;;;;;;;;;16.06;64.46;96914.97;30001;982;1881;-64
2022/06/07 00:55:07;;;;;;;;;;;;;;;16.06;64.31;96913.06;30001;982;1881;-64
2022/06/07 00:55:38;;;;;;;;;;;;;;;16.05;64.63;96916.91;30001;983;1881;-62
2022/06/07 00:56:09;;;;;;;;;;;;;;;16.04;64.48;96918.03;30001;960;1904;-58
2022/06/07 00:56:39;;;;;;;;;;;;;;;16.08;63.52;96910.00;30001;983;1868;-59
2022/06/07 00:57:10;;;;;;;;;;;;;;;16.09;63.65;96912.41;30001;983;1872;-62
2022/06/07 00:57:42;;;;;;;;;;;;;;;16.08;63.60;96913.53;30001;983;1881;-50
2022/06/07 00:58:13;;;;;;;;;;;;;;;16.08;63.44;96916.25;30001;983;1881;-64
2022/06/07 00:58:44;;;;;;;;;;;;;;;16.06;63.64;96913.06;30001;983;1881;-63
2022/06/07 00:59:15;;;;;;;;;;;;;;;16.04;63.69;96920.78;30001;983;1881;-64
2022/06/07 00:59:46;;;;;;;;;;;;;;;16.03;64.14;96919.19;30001;982;1881;-62
2022/06/07 01:00:18;;;;;;;;;;;;;;;16.02;64.24;96916.75;30001;982;1868;-62
2022/06/07 01:00:49;;;;;;;;;;;;;;;16.01;65.57;96921.44;30001;982;1779;-61
2022/06/07 01:01:19;;;;;;;;;;;;;;;15.99;65.37;96918.22;30001;982;1882;-64
2022/06/07 01:01:50;;;;;;;;;;;;;;;15.97;65.32;96920.47;30001;982;1882;-64
2022/06/07 01:02:21;;;;;;;;;;;;;;;15.95;64.62;96922.75;30001;983;1881;-63
2022/06/07 01:02:53;;;;;;;;;;;;;;;15.93;64.94;96914.06;30001;983;1881;-63
2022/06/07 01:03:25;;;;;;;;;;;;;;;15.92;64.80;96917.94;30001;983;1881;-64
2022/06/07 01:03:56;;;;;;;;;;;;;;;15.92;65.24;96919.88;30001;983;1881;-64
2022/06/07 01:04:27;;;;;;;;;;;;;;;15.90;65.02;96920.19;30001;983;1881;-64
2022/06/07 01:04:58;;;;;;;;;;;;;;;15.88;65.12;96925.19;30001;983;1881;-61
2022/06/07 01:05:29;;;;;;;;;;;;;;;15.87;65.46;96926.31;30001;983;1868;-64
2022/06/07 01:10:43;;;;;;;;;;;;;;;15.87;65.19;96914.56;30001;983;1859;-64
2022/06/07 01:10:56;;;;;;;;;;;;;;;15.82;66.79;96912.81;30001;983;1881;-64
2022/06/07 01:11:28;;;;;;;;;;;;;;;15.82;68.05;96912.81;30001;983;1867;-62
2022/06/07 01:11:59;;;;;;;;;;;;;;;15.81;67.91;96904.94;30001;983;1872;-64
2022/06/07 01:12:32;;;;;;;;;;;;;;;15.78;68.25;96909.13;30001;983;1881;-64
2022/06/07 01:13:02;;;;;;;;;;;;;;;15.77;68.34;96910.25;30001;983;1881;-61
2022/06/07 01:13:35;;;;;;;;;;;;;;;15.75;68.95;96907.03;30001;983;1881;-63
2022/06/07 01:14:05;;;;;;;;;;;;;;;15.71;69.99;96906.06;30001;983;1881;-62
2022/06/07 01:14:37;;;;;;;;;;;;;;;15.67;69.82;96910.59;30001;983;1881;-63
2022/06/07 01:15:09;;;;;;;;;;;;;;;15.65;70.43;96912.84;30001;982;1881;-64
2022/06/07 01:15:42;;;;;;;;;;;;;;;15.62;70.71;96906.09;30001;982;1881;-64
2022/06/07 01:16:13;;;;;;;;;;;;;;;15.60;70.69;96904.78;30001;982;1881;-65
2022/06/07 01:16:44;;;;;;;;;;;;;;;15.57;71.21;96911.75;30001;982;1868;-63
2022/06/07 01:17:15;;;;;;;;;;;;;;;15.54;70.82;96906.09;30001;982;1873;-64
2022/06/07 01:17:46;;;;;;;;;;;;;;;15.52;71.04;96909.16;30001;983;1881;-65
2022/06/07 01:18:17;;;;;;;;;;;;;;;15.51;71.54;96910.28;30001;983;1881;-63
2022/06/07 01:18:47;;;;;;;;;;;;;;;15.49;70.99;96912.53;30001;983;1867;-65
2022/06/07 01:19:18;;;;;;;;;;;;;;;15.46;71.15;96901.44;30001;983;1872;-65
2022/06/07 01:19:49;;;;;;;;;;;;;;;15.46;70.38;96904.16;30001;983;1881;-64
2022/06/07 01:20:20;;;;;;;;;;;;;;;15.46;71.02;96904.97;30001;983;1868;-53
2022/06/07 01:21:09;;;;;;;;;;;;;;;15.45;70.95;96908.03;30001;983;1872;-62
2022/06/07 01:21:41;;;;;;;;;;;;;;;15.43;71.83;96895.47;30001;982;1859;-65
2022/06/07 01:22:12;;;;;;;;;;;;;;;15.41;71.43;96903.19;30001;982;1872;-63
2022/06/07 01:22:43;;;;;;;;;;;;;;;15.39;72.58;96905.44;30001;982;1881;-63
2022/06/07 01:23:14;;;;;;;;;;;;;;;15.38;73.40;96909.31;30001;982;1881;-63
2022/06/07 01:23:45;;;;;;;;;;;;;;;15.34;72.85;96905.63;30001;982;1881;-64
2022/06/07 01:24:16;;;;;;;;;;;;;;;15.34;72.45;96904.81;30001;982;1869;-64
2022/06/07 01:24:47;;;;;;;;;;;;;;;15.33;71.88;96914.94;30001;982;1859;-64
2022/06/07 01:25:18;;;;;;;;;;;;;;;15.32;72.12;96899.66;30001;983;1881;-65
2022/06/07 01:25:59;;;;;;;;;;;;;;;15.33;72.20;96897.72;30001;983;1881;-64
2022/06/07 01:26:30;;;;;;;;;;;;;;;15.34;72.57;96907.53;30001;983;1881;-63
2022/06/07 01:27:01;;;;;;;;;;;;;;;15.32;72.12;96909.78;30001;983;1881;-63
2022/06/07 01:27:32;;;;;;;;;;;;;;;15.30;71.89;96896.44;30001;983;1881;-63
2022/06/07 01:28:03;;;;;;;;;;;;;;;15.28;72.60;96909.62;30001;983;1881;-64
2022/06/07 01:28:34;;;;;;;;;;;;;;;15.27;72.30;96910.75;30001;983;1881;-63
2022/06/07 01:29:05;;;;;;;;;;;;;;;15.25;72.10;96904.81;30001;983;1881;-63
2022/06/07 01:29:36;;;;;;;;;;;;;;;15.24;72.14;96903.22;30001;982;1868;-63
2022/06/07 01:30:07;;;;;;;;;;;;;;;15.23;73.12;96907.09;30001;982;1872;-63
2022/06/07 01:30:38;;;;;;;;;;;;;;;15.22;73.04;96905.47;30001;982;1881;-64
2022/06/07 01:31:09;;;;;;;;;;;;;;;15.21;73.08;96909.34;30001;966;1905;-64
2022/06/07 01:31:40;;;;;;;;;;;;;;;15.20;72.58;96907.72;30001;982;1882;-64
2022/06/07 01:32:11;;;;;;;;;;;;;;;15.22;73.25;96919.16;30001;982;1882;-64
2022/06/07 01:32:42;;;;;;;;;;;;;;;15.20;73.30;96913.19;30001;983;1881;-64
2022/06/07 01:33:13;;;;;;;;;;;;;;;15.18;73.40;96909.97;30001;983;1881;-64
2022/06/07 01:33:44;;;;;;;;;;;;;;;15.16;73.04;96912.22;30001;983;1881;-64
2022/06/07 01:34:15;;;;;;;;;;;;;;;15.15;73.37;96913.34;30001;983;1868;-65
2022/06/07 01:34:46;;;;;;;;;;;;;;;15.13;73.32;96918.34;30001;983;1859;-64
2022/06/07 01:35:17;;;;;;;;;;;;;;;15.12;73.35;96911.25;30001;983;1881;-63
2022/06/07 01:35:49;;;;;;;;;;;;;;;15.11;73.21;96912.38;30001;983;1881;-62
2022/06/07 01:36:19;;;;;;;;;;;;;;;15.11;73.84;96911.56;30001;983;1881;-64
2022/06/07 01:36:50;;;;;;;;;;;;;;;15.09;73.63;96917.38;30001;982;1881;-63
2022/06/07 01:37:21;;;;;;;;;;;;;;;15.08;73.31;96910.28;30001;982;1868;-65
2022/06/07 01:37:55;;;;;;;;;;;;;;;15.05;73.39;96909.00;30001;982;1873;-64
2022/06/07 01:38:26;;;;;;;;;;;;;;;15.07;73.70;96914.16;30001;982;1881;-64
2022/06/07 01:42:13;;;;;;;;;;;;;;;15.03;72.52;96904.97;30001;983;1881;-64
2022/06/07 01:42:44;;;;;;;;;;;;;;;15.03;72.60;96910.44;30001;983;1868;-64
2022/06/07 01:43:14;;;;;;;;;;;;;;;15.03;72.20;96913.19;30001;983;1872;-64
2022/06/07 01:43:45;;;;;;;;;;;;;;;15.03;72.19;96908.53;30001;983;1881;-64
2022/06/07 01:44:16;;;;;;;;;;;;;;;15.05;72.01;96905.47;30001;982;1868;-56
2022/06/07 01:44:48;;;;;;;;;;;;;;;15.07;71.45;96905.94;30001;982;1872;-62
2022/06/07 01:45:19;;;;;;;;;;;;;;;15.08;70.86;96910.28;30001;982;1881;-64
2022/06/07 01:45:50;;;;;;;;;;;;;;;15.09;71.18;96907.25;30001;982;1881;-65
2022/06/07 01:46:20;;;;;;;;;;;;;;;15.08;72.60;96905.63;30001;982;1868;-62
2022/06/07 01:46:52;;;;;;;;;;;;;;;15.08;73.49;96910.28;30001;982;1873;-64
2022/06/07 01:47:24;;;;;;;;;;;;;;;15.07;73.61;96908.69;30001;982;1882;-64
2022/06/07 01:47:55;;;;;;;;;;;;;;;15.05;72.72;96910.94;30001;983;1868;-62
2022/06/07 01:48:26;;;;;;;;;;;;;;;15.04;72.51;96904.66;30001;983;1872;-63
2022/06/07 01:48:57;;;;;;;;;;;;;;;15.04;72.91;96906.59;30001;983;1881;-62
2022/06/07 01:49:28;;;;;;;;;;;;;;;15.04;72.59;96903.84;30001;984;1889;-64
2022/06/07 01:49:59;;;;;;;;;;;;;;;15.03;73.12;96903.06;30001;983;1881;-62
2022/06/07 01:50:30;;;;;;;;;;;;;;;15.03;72.56;96902.25;30001;983;1881;-64
2022/06/07 01:51:01;;;;;;;;;;;;;;;15.03;73.09;96907.72;30001;983;1881;-60
2022/06/07 01:51:32;;;;;;;;;;;;;;;15.03;72.36;96903.06;30001;983;1881;-64
2022/06/07 01:52:07;;;;;;;;;;;;;;;15.04;72.37;96901.13;30001;982;1881;-60
2022/06/07 01:52:38;;;;;;;;;;;;;;;15.02;72.31;96895.97;30001;982;1868;-63
2022/06/07 01:53:09;;;;;;;;;;;;;;;15.04;71.97;96903.84;30001;982;1872;-63
2022/06/07 01:53:40;;;;;;;;;;;;;;;15.02;71.53;96900.63;30001;982;1881;-64
2022/06/07 01:54:12;;;;;;;;;;;;;;;15.02;71.64;96898.72;30001;982;1882;-63
2022/06/07 01:54:43;;;;;;;;;;;;;;;15.02;71.70;96911.56;30001;983;1868;-63
2022/06/07 01:55:14;;;;;;;;;;;;;;;15.01;72.01;96902.56;30001;983;1872;-64
2022/06/07 01:55:45;;;;;;;;;;;;;;;15.01;73.43;96904.50;30001;983;1881;-64
2022/06/07 01:56:16;;;;;;;;;;;;;;;15.01;74.07;96899.03;30001;983;1868;-65
2022/06/07 01:56:48;;;;;;;;;;;;;;;14.99;74.22;96902.09;30001;983;1872;-65
2022/06/07 01:57:20;;;;;;;;;;;;;;;14.98;74.21;96905.94;30001;983;1881;-64
2022/06/07 01:57:51;;;;;;;;;;;;;;;14.96;73.74;96900.00;30001;983;1881;-63
2022/06/07 01:58:21;;;;;;;;;;;;;;;14.97;75.16;96903.53;30001;983;1881;-65
2022/06/07 01:58:52;;;;;;;;;;;;;;;14.95;74.96;96905.78;30001;983;1881;-64
2022/06/07 01:59:24;;;;;;;;;;;;;;;14.93;74.93;96908.03;30001;982;1881;-64
2022/06/07 01:59:55;;;;;;;;;;;;;;;14.90;75.16;96908.69;30001;982;1881;-64
2022/06/07 02:00:27;;;;;;;;;;;;;;;14.88;74.69;96906.28;30001;982;1868;-63
2022/06/07 02:00:57;;;;;;;;;;;;;;;14.87;75.93;96896.47;30001;982;1873;-62
2022/06/07 02:01:28;;;;;;;;;;;;;;;14.85;75.52;96897.91;30001;982;1882;-63
2022/06/07 02:01:59;;;;;;;;;;;;;;;14.84;75.71;96897.09;30001;983;1880;-62
2022/06/07 02:02:30;;;;;;;;;;;;;;;14.84;75.87;96904.50;30001;983;1868;-64
2022/06/07 02:03:01;;;;;;;;;;;;;;;14.82;75.62;96901.28;30001;983;1872;-63
2022/06/07 02:03:32;;;;;;;;;;;;;;;14.81;75.73;96895.00;30001;983;1881;-64
2022/06/07 02:04:03;;;;;;;;;;;;;;;14.80;75.63;96898.87;30001;983;1881;-63
2022/06/07 02:04:38;;;;;;;;;;;;;;;14.78;74.89;96901.13;30001;983;1881;-64
2022/06/07 02:05:08;;;;;;;;;;;;;;;14.74;74.66;96898.22;30001;983;1881;-64
2022/06/07 02:05:39;;;;;;;;;;;;;;;14.75;74.77;96896.28;30001;983;1881;-63
2022/06/07 02:06:12;;;;;;;;;;;;;;;14.74;75.34;96892.75;30001;983;1881;-63
2022/06/07 02:06:43;;;;;;;;;;;;;;;14.73;74.83;96896.59;30001;983;1881;-64
2022/06/07 02:07:14;;;;;;;;;;;;;;;14.72;75.05;96892.25;30001;982;1881;-64
2022/06/07 02:07:45;;;;;;;;;;;;;;;14.71;74.91;96901.56;30001;982;1868;-63
2022/06/07 02:08:16;;;;;;;;;;;;;;;14.70;75.14;96889.03;30001;982;1873;-64
2022/06/07 02:08:46;;;;;;;;;;;;;;;14.70;75.08;96894.50;30001;982;1881;-63
2022/06/07 02:09:18;;;;;;;;;;;;;;;14.69;74.91;96897.56;30001;982;1881;-62
2022/06/07 02:09:49;;;;;;;;;;;;;;;14.68;75.27;96896.75;30001;983;1881;-64
2022/06/07 02:10:20;;;;;;;;;;;;;;;14.67;75.95;96899.81;30001;983;1881;-64
2022/06/07 02:10:51;;;;;;;;;;;;;;;14.66;75.69;96893.53;30001;983;1881;-64
2022/06/07 02:11:23;;;;;;;;;;;;;;;14.67;75.83;96889.69;30001;983;1881;-63
2022/06/07 02:11:54;;;;;;;;;;;;;;;14.67;75.62;96895.12;30001;983;1881;-64
2022/06/07 02:12:25;;;;;;;;;;;;;;;14.67;77.68;96894.34;30001;983;1881;-65
2022/06/07 02:12:56;;;;;;;;;;;;;;;14.65;77.82;96891.94;30001;983;1868;-64
2022/06/07 02:13:27;;;;;;;;;;;;;;;14.62;77.00;96892.56;30001;983;1872;-64
2022/06/07 02:13:58;;;;;;;;;;;;;;;14.61;77.26;96892.88;30001;983;1881;-51
2022/06/07 02:14:29;;;;;;;;;;;;;;;14.60;76.69;96894.81;30001;982;1881;-64
2022/06/07 02:15:00;;;;;;;;;;;;;;;14.60;76.64;96889.34;30001;982;1881;-64
2022/06/07 02:15:32;;;;;;;;;;;;;;;14.60;77.25;96889.34;30001;982;1881;-64
2022/06/07 02:16:03;;;;;;;;;;;;;;;14.58;77.02;96891.59;30001;982;1881;-62
2022/06/07 02:16:34;;;;;;;;;;;;;;;14.55;76.44;96892.25;30001;982;1881;-64
2022/06/07 02:17:06;;;;;;;;;;;;;;;14.54;76.03;96893.38;30001;983;1881;-65
2022/06/07 02:17:37;;;;;;;;;;;;;;;14.54;76.55;96887.09;30001;983;1881;-64
2022/06/07 02:18:08;;;;;;;;;;;;;;;14.52;76.28;96887.41;30001;983;1868;-64
2022/06/07 02:18:40;;;;;;;;;;;;;;;14.51;76.03;96885.81;30001;983;1872;-63
2022/06/07 02:19:14;;;;;;;;;;;;;;;14.51;75.92;96885.81;30001;983;1881;-63
2022/06/07 02:19:45;;;;;;;;;;;;;;;14.52;76.94;96889.34;30001;983;1788;-63
2022/06/07 02:20:16;;;;;;;;;;;;;;;14.51;76.33;96885.81;30001;983;1881;-63
2022/06/07 02:20:47;;;;;;;;;;;;;;;14.51;76.66;96885.81;30001;983;1881;-63
2022/06/07 02:21:19;;;;;;;;;;;;;;;14.50;76.66;96886.94;30001;983;1868;-62
2022/06/07 02:21:50;;;;;;;;;;;;;;;14.50;76.49;96889.66;30001;983;1872;-64
2022/06/07 02:22:20;;;;;;;;;;;;;;;14.50;77.18;96886.13;30001;982;1881;-63
2022/06/07 02:22:51;;;;;;;;;;;;;;;14.48;76.54;96877.44;30001;982;1882;-64
2022/06/07 02:23:22;;;;;;;;;;;;;;;14.48;76.37;96878.25;30001;982;1881;-63
2022/06/07 02:23:53;;;;;;;;;;;;;;;14.49;76.38;96882.59;30001;982;1881;-64
2022/06/07 02:24:26;;;;;;;;;;;;;;;14.48;76.54;96880.19;30001;982;1882;-64
2022/06/07 02:24:57;;;;;;;;;;;;;;;14.46;75.96;96875.03;30001;983;1881;-63
2022/06/07 02:25:30;;;;;;;;;;;;;;;14.46;76.08;96877.78;30001;983;1881;-64
2022/06/07 02:26:08;;;;;;;;;;;;;;;14.45;76.04;96876.16;30001;983;1868;-63
2022/06/07 02:26:44;;;;;;;;;;;;;;;14.43;76.48;96877.59;30001;983;1872;-62
2022/06/07 02:27:17;;;;;;;;;;;;;;;14.40;76.07;96874.34;30001;983;1881;-62
2022/06/07 02:27:48;;;;;;;;;;;;;;;14.37;76.63;96866.78;30001;983;1881;-63
2022/06/07 02:28:23;;;;;;;;;;;;;;;14.38;76.48;96881.25;30001;983;1868;-64
2022/06/07 02:28:57;;;;;;;;;;;;;;;14.36;76.52;96872.56;30001;982;1873;-63
2022/06/07 02:29:32;;;;;;;;;;;;;;;14.36;76.23;96872.56;30001;982;1881;-64
2022/06/07 02:30:04;;;;;;;;;;;;;;;14.35;76.30;96870.97;30001;982;1881;-62
2022/06/07 02:30:36;;;;;;;;;;;;;;;14.36;75.96;96875.28;30001;982;1881;-62
2022/06/07 02:31:08;;;;;;;;;;;;;;;14.35;76.04;96877.22;30001;982;1882;-64
2022/06/07 02:31:42;;;;;;;;;;;;;;;14.33;75.46;96867.75;30001;982;1881;-61
2022/06/07 02:32:26;;;;;;;;;;;;;;;14.33;75.60;96878.66;30001;983;1868;-64
2022/06/07 02:32:58;;;;;;;;;;;;;;;14.32;75.34;96877.03;30001;983;1872;-62
2022/06/07 02:33:29;;;;;;;;;;;;;;;14.32;75.27;96872.38;30001;983;1881;-61
2022/06/07 02:34:01;;;;;;;;;;;;;;;14.32;74.47;96871.59;30001;983;1881;-62
2022/06/07 02:34:34;;;;;;;;;;;;;;;14.32;74.78;96877.03;30001;983;1881;-62
2022/06/07 02:35:05;;;;;;;;;;;;;;;14.34;74.62;96872.06;30001;983;1881;-63
2022/06/07 02:35:39;;;;;;;;;;;;;;;14.34;74.44;96869.34;30001;983;1881;-63
2022/06/07 02:36:10;;;;;;;;;;;;;;;14.34;74.55;96869.34;30001;983;1868;-61
2022/06/07 02:36:43;;;;;;;;;;;;;;;14.32;74.28;96861.47;30001;982;1873;-63
2022/06/07 02:37:15;;;;;;;;;;;;;;;14.33;74.26;96862.28;30001;982;1881;-64
2022/06/07 02:37:45;;;;;;;;;;;;;;;14.32;74.38;96869.66;30001;982;1881;-62
2022/06/07 02:38:17;;;;;;;;;;;;;;;14.32;74.26;96871.59;30001;982;1882;-64
2022/06/07 02:38:47;;;;;;;;;;;;;;;14.32;73.94;96871.59;30001;982;1881;-64
2022/06/07 02:39:18;;;;;;;;;;;;;;;14.32;74.13;96860.66;30001;982;1881;-64
2022/06/07 02:39:49;;;;;;;;;;;;;;;14.32;74.12;96866.13;30001;983;1867;-64
2022/06/07 02:40:21;;;;;;;;;;;;;;;14.32;73.87;96872.38;30001;983;1872;-64
2022/06/07 02:40:52;;;;;;;;;;;;;;;14.32;74.12;96868.84;30001;983;1881;-63
2022/06/07 02:41:26;;;;;;;;;;;;;;;14.30;74.05;96869.16;30001;983;1881;-62
2022/06/07 02:42:00;;;;;;;;;;;;;;;14.30;74.28;96869.16;30001;983;1881;-64
2022/06/07 02:42:31;;;;;;;;;;;;;;;14.30;73.83;96865.62;30001;983;1881;-64
2022/06/07 02:43:02;;;;;;;;;;;;;;;14.29;73.62;96866.75;30001;983;1881;-63
2022/06/07 02:43:33;;;;;;;;;;;;;;;14.31;73.21;96859.06;30001;983;1881;-63
2022/06/07 02:44:05;;;;;;;;;;;;;;;14.31;73.15;96856.34;30001;982;1881;-61
2022/06/07 02:44:36;;;;;;;;;;;;;;;14.33;72.81;96865.81;30001;982;1881;-61
2022/06/07 02:45:08;;;;;;;;;;;;;;;14.33;72.65;96862.28;30001;982;1868;-67
2022/06/07 02:45:38;;;;;;;;;;;;;;;14.34;72.67;96858.44;30001;982;1859;-61
2022/06/07 02:46:09;;;;;;;;;;;;;;;14.33;72.04;96857.62;30001;982;1868;-63
2022/06/07 02:46:40;;;;;;;;;;;;;;;14.32;71.71;96855.22;30001;982;1873;-63
2022/06/07 02:47:11;;;;;;;;;;;;;;;14.33;72.25;96856.81;30001;983;1881;-62
2022/06/07 02:47:43;;;;;;;;;;;;;;;14.34;71.50;96858.44;30001;983;1881;-61
2022/06/07 02:48:14;;;;;;;;;;;;;;;14.34;71.43;96855.69;30001;983;1881;-60
2022/06/07 02:48:45;;;;;;;;;;;;;;;14.34;70.84;96858.44;30001;983;1881;-63
2022/06/07 02:49:16;;;;;;;;;;;;;;;14.33;71.56;96854.91;30001;983;1881;-63
2022/06/07 02:49:47;;;;;;;;;;;;;;;14.32;72.63;96845.09;30001;983;1881;-62
2022/06/07 02:50:18;;;;;;;;;;;;;;;14.33;72.38;96852.16;30001;983;1868;-63
2022/06/07 02:50:50;;;;;;;;;;;;;;;14.32;72.35;96853.28;30001;983;1758;-63
2022/06/07 02:51:22;;;;;;;;;;;;;;;14.32;72.31;96847.03;30001;982;1868;-59
2022/06/07 02:51:53;;;;;;;;;;;;;;;14.35;71.42;96843.66;30001;982;1873;-62
2022/06/07 02:52:24;;;;;;;;;;;;;;;14.36;71.23;96839.81;30001;982;1881;-63
2022/06/07 02:52:55;;;;;;;;;;;;;;;14.36;70.63;96846.06;30001;982;1881;-63
2022/06/07 02:53:25;;;;;;;;;;;;;;;14.36;71.10;96845.28;30001;982;1882;-62
2022/06/07 02:53:56;;;;;;;;;;;;;;;14.37;70.87;96844.16;30001;982;1881;-63
2022/06/07 02:54:27;;;;;;;;;;;;;;;14.37;70.97;96849.59;30001;982;1882;-64
2022/06/07 02:54:59;;;;;;;;;;;;;;;14.38;70.87;96843.03;30001;983;1881;-62
2022/06/07 02:55:30;;;;;;;;;;;;;;;14.37;71.29;96836.75;30001;983;1881;-62
2022/06/07 02:56:01;;;;;;;;;;;;;;;14.37;71.30;96844.16;30001;983;1881;-62
2022/06/07 02:56:32;;;;;;;;;;;;;;;14.38;71.65;96840.28;30001;983;1769;-62
2022/06/07 02:57:03;;;;;;;;;;;;;;;14.40;71.50;96843.50;30001;983;1872;-61